createdAt,value
2018-09-14T00:02:18.726Z,17.60
2018-09-14T00:04:45.011Z,17.70
2018-09-14T00:07:11.248Z,17.60
2018-09-14T00:09:37.518Z,17.70
2018-09-14T00:12:03.843Z,17.60
2018-09-14T00:14:30.120Z,17.50
2018-09-14T00:16:56.381Z,17.70
2018-09-14T00:19:22.693Z,17.70
2018-09-14T00:21:48.959Z,17.70
2018-09-14T00:24:15.262Z,17.80
2018-09-14T00:26:41.517Z,17.80
2018-09-14T00:29:07.821Z,17.90
2018-09-14T00:31:34.125Z,17.90
2018-09-14T00:34:00.431Z,17.90
2018-09-14T00:36:27.421Z,17.90
2018-09-14T00:38:53.725Z,17.90
2018-09-14T00:41:20.727Z,18.00
2018-09-14T00:43:46.968Z,17.90
2018-09-14T00:46:13.283Z,17.90
2018-09-14T00:48:39.577Z,18.00
2018-09-14T00:53:39.008Z,18.00
2018-09-14T00:56:05.313Z,18.00
2018-09-14T00:58:32.337Z,17.90
2018-09-14T01:00:58.601Z,17.90
2018-09-14T01:03:25.643Z,17.90
2018-09-14T01:05:52.633Z,17.80
2018-09-14T01:08:18.928Z,17.80
2018-09-14T01:10:45.246Z,17.80
2018-09-14T01:13:11.501Z,17.80
2018-09-14T01:15:37.748Z,17.70
2018-09-14T01:18:04.057Z,17.70
2018-09-14T01:20:30.313Z,17.60
2018-09-14T01:22:56.581Z,17.60
2018-09-14T01:25:22.830Z,17.50
2018-09-14T01:27:49.874Z,17.60
2018-09-14T01:30:16.936Z,17.50
2018-09-14T01:32:43.220Z,17.50
2018-09-14T01:35:09.528Z,17.50
2018-09-14T01:37:35.775Z,17.40
2018-09-14T01:40:02.074Z,17.40
2018-09-14T01:42:28.329Z,17.40
2018-09-14T01:44:54.609Z,17.30
2018-09-14T01:47:21.597Z,17.30
2018-09-14T01:49:47.876Z,17.30
2018-09-14T01:52:14.157Z,17.40
2018-09-14T01:54:40.401Z,17.40
2018-09-14T01:57:06.690Z,17.30
2018-09-14T01:59:33.718Z,17.20
2018-09-14T02:01:59.987Z,17.20
2018-09-14T02:04:26.258Z,17.30
2018-09-14T02:06:52.518Z,17.30
2018-09-14T02:09:19.498Z,17.20
2018-09-14T02:11:45.782Z,17.20
2018-09-14T02:14:12.022Z,17.40
2018-09-14T02:16:39.029Z,17.40
2018-09-14T02:19:05.329Z,17.30
2018-09-14T02:21:31.593Z,17.40
2018-09-14T02:23:57.870Z,17.40
2018-09-14T02:26:24.868Z,17.40
2018-09-14T02:28:51.144Z,17.40
2018-09-14T02:31:18.172Z,17.40
2018-09-14T02:33:44.455Z,17.40
2018-09-14T02:36:10.691Z,17.40
2018-09-14T02:38:36.977Z,17.30
2018-09-14T02:41:03.981Z,17.20
2018-09-14T02:43:30.254Z,17.20
2018-09-14T02:45:57.243Z,17.20
2018-09-14T02:48:23.536Z,17.20
2018-09-14T02:50:50.536Z,17.10
2018-09-14T02:53:16.796Z,17.10
2018-09-14T02:55:43.093Z,17.20
2018-09-14T02:58:09.351Z,17.20
2018-09-14T03:00:35.642Z,17.20
2018-09-14T03:03:01.894Z,17.30
2018-09-14T03:05:28.138Z,17.10
2018-09-14T03:07:54.405Z,17.30
2018-09-14T03:10:21.426Z,17.30
2018-09-14T03:12:47.697Z,17.30
2018-09-14T03:15:13.978Z,17.30
2018-09-14T03:17:40.270Z,17.30
2018-09-14T03:20:06.564Z,17.30
2018-09-14T03:22:33.541Z,17.30
2018-09-14T03:24:59.821Z,17.30
2018-09-14T03:27:26.062Z,17.20
2018-09-14T03:29:52.306Z,17.20
2018-09-14T03:32:18.641Z,17.30
2018-09-14T03:34:44.922Z,17.20
2018-09-14T03:37:11.174Z,17.30
2018-09-14T03:39:37.453Z,17.20
2018-09-14T03:42:04.466Z,17.10
2018-09-14T03:44:30.791Z,17.10
2018-09-14T03:46:57.045Z,17.10
2018-09-14T03:49:24.067Z,17.00
2018-09-14T03:51:50.310Z,16.90
2018-09-14T03:54:16.581Z,17.00
2018-09-14T03:56:42.860Z,16.80
2018-09-14T03:59:09.125Z,16.80
2018-09-14T04:01:35.374Z,16.70
2018-09-14T04:04:01.638Z,16.70
2018-09-14T04:06:28.324Z,16.80
2018-09-14T04:08:54.622Z,16.70
2018-09-14T04:11:20.890Z,16.60
2018-09-14T04:13:47.156Z,16.70
2018-09-14T04:16:13.433Z,16.60
2018-09-14T04:18:39.699Z,16.60
2018-09-14T04:21:07.578Z,16.60
2018-09-14T04:23:33.968Z,16.70
2018-09-14T04:26:00.875Z,16.70
2018-09-14T04:28:27.236Z,16.60
2018-09-14T04:30:54.256Z,16.70
2018-09-14T04:33:20.525Z,16.70
2018-09-14T04:35:47.547Z,16.80
2018-09-14T04:38:13.891Z,16.80
2018-09-14T04:40:40.167Z,16.80
2018-09-14T04:43:06.435Z,16.80
2018-09-14T04:45:34.528Z,16.80
2018-09-14T04:48:01.589Z,16.80
2018-09-14T04:50:28.573Z,16.90
2018-09-14T04:52:54.835Z,16.90
2018-09-14T04:55:21.143Z,16.90
2018-09-14T04:57:47.979Z,16.90
2018-09-14T05:00:15.399Z,16.90
2018-09-14T05:02:42.391Z,16.80
2018-09-14T05:05:08.664Z,16.80
2018-09-14T05:07:34.933Z,16.70
2018-09-14T05:10:01.206Z,16.60
2018-09-14T05:12:27.448Z,16.60
2018-09-14T05:14:53.728Z,16.50
2018-09-14T05:17:19.981Z,16.60
2018-09-14T05:19:46.270Z,16.50
2018-09-14T05:22:12.512Z,16.50
2018-09-14T05:24:38.835Z,16.60
2018-09-14T05:27:05.060Z,16.60
2018-09-14T05:29:31.346Z,16.50
2018-09-14T05:31:57.645Z,16.60
2018-09-14T05:34:23.885Z,16.70
2018-09-14T05:36:50.146Z,16.50
2018-09-14T05:39:16.395Z,16.70
2018-09-14T05:41:43.457Z,16.80
2018-09-14T05:44:09.699Z,16.70
2018-09-14T05:46:35.952Z,16.80
2018-09-14T05:49:02.469Z,16.90
2018-09-14T05:51:28.715Z,16.90
2018-09-14T05:53:54.950Z,16.90
2018-09-14T05:56:21.220Z,17.00
2018-09-14T05:58:47.504Z,16.90
2018-09-14T06:01:13.785Z,17.00
2018-09-14T06:03:40.021Z,17.00
2018-09-14T06:06:07.039Z,16.80
2018-09-14T06:08:33.326Z,16.80
2018-09-14T06:10:59.600Z,16.90
2018-09-14T06:13:25.870Z,17.10
2018-09-14T06:15:52.107Z,17.20
2018-09-14T06:18:18.357Z,17.30
2018-09-14T06:20:44.630Z,17.40
2018-09-14T06:23:10.882Z,17.40
2018-09-14T06:25:37.954Z,17.30
2018-09-14T06:28:04.201Z,17.30
2018-09-14T06:30:30.508Z,17.40
2018-09-14T06:32:56.794Z,17.50
2018-09-14T06:35:23.069Z,17.50
2018-09-14T06:37:49.302Z,17.50
2018-09-14T06:40:15.585Z,17.60
2018-09-14T06:42:41.860Z,17.80
2018-09-14T06:45:08.244Z,17.80
2018-09-14T06:47:34.521Z,17.90
2018-09-14T06:50:00.761Z,18.10
2018-09-14T06:52:27.039Z,18.10
2018-09-14T06:54:53.297Z,18.30
2018-09-14T06:57:20.334Z,18.70
2018-09-14T06:59:46.623Z,18.70
2018-09-14T07:02:12.860Z,18.50
2018-09-14T07:04:39.122Z,18.00
2018-09-14T07:07:05.382Z,18.10
2018-09-14T07:09:31.672Z,17.80
2018-09-14T07:11:57.925Z,17.90
2018-09-14T07:14:24.946Z,18.00
2018-09-14T07:16:51.190Z,18.00
2018-09-14T07:19:17.452Z,17.60
2018-09-14T07:21:43.758Z,17.40
2018-09-14T07:24:10.002Z,17.40
2018-09-14T07:26:37.034Z,17.40
2018-09-14T07:29:03.287Z,17.40
2018-09-14T07:31:30.369Z,17.30
2018-09-14T07:33:57.338Z,17.60
2018-09-14T07:36:23.651Z,17.60
2018-09-14T07:38:49.880Z,17.80
2018-09-14T07:41:16.161Z,17.70
2018-09-14T07:43:43.178Z,17.70
2018-09-14T07:46:09.437Z,17.70
2018-09-14T07:48:35.792Z,17.90
2018-09-14T07:51:02.102Z,17.90
2018-09-14T07:53:29.130Z,18.30
2018-09-14T07:55:55.412Z,18.30
2018-09-14T07:58:21.689Z,18.50
2018-09-14T08:00:53.174Z,18.60
2018-09-14T08:03:19.945Z,18.60
2018-09-14T08:05:47.157Z,19.10
2018-09-14T08:08:13.645Z,19.10
2018-09-14T08:11:01.618Z,19.60
2018-09-14T08:13:31.842Z,22.70
2018-09-14T08:18:38.509Z,28.70
2018-09-14T08:21:04.846Z,28.10
2018-09-14T08:23:32.841Z,27.50
2018-09-14T08:25:59.166Z,26.40
2018-09-14T08:28:25.439Z,26.50
2018-09-14T08:30:51.730Z,25.80
2018-09-14T08:33:18.025Z,25.00
2018-09-14T08:35:44.347Z,26.20
2018-09-14T08:38:10.600Z,27.20
2018-09-14T08:40:36.914Z,26.10
2018-09-14T08:43:04.207Z,27.30
2018-09-14T08:45:31.038Z,27.00
2018-09-14T08:47:58.179Z,26.20
2018-09-14T08:50:24.910Z,26.20
2018-09-14T08:52:53.368Z,26.00
2018-09-14T08:55:19.725Z,25.00
2018-09-14T08:57:46.182Z,24.80
2018-09-14T09:00:12.604Z,24.40
2018-09-14T09:02:40.400Z,24.10
2018-09-14T09:05:09.781Z,24.40
2018-09-14T09:07:37.132Z,25.00
2018-09-14T09:10:07.234Z,25.80
2018-09-14T09:12:35.349Z,26.30
2018-09-14T09:15:02.833Z,26.30
2018-09-14T09:17:29.274Z,25.50
2018-09-14T09:19:55.582Z,26.00
2018-09-14T09:22:22.652Z,26.70
2018-09-14T09:24:48.963Z,26.70
2018-09-14T09:27:15.959Z,26.40
2018-09-14T09:29:42.257Z,26.40
2018-09-14T09:32:09.204Z,27.20
2018-09-14T09:34:36.639Z,27.80
2018-09-14T09:37:03.774Z,26.60
2018-09-14T09:39:33.364Z,26.60
2018-09-14T09:42:00.949Z,25.90
2018-09-14T09:44:27.565Z,25.20
2018-09-14T09:46:55.796Z,24.10
2018-09-14T09:49:24.216Z,23.40
2018-09-14T09:51:55.152Z,23.20
2018-09-14T09:54:39.897Z,23.30
2018-09-14T09:57:07.337Z,24.00
2018-09-14T09:59:33.897Z,24.00
2018-09-14T10:02:00.289Z,24.40
2018-09-14T10:04:26.583Z,24.50
2018-09-14T10:06:52.874Z,24.40
2018-09-14T10:09:19.166Z,24.50
2018-09-14T10:11:45.466Z,24.40
2018-09-14T10:14:11.782Z,24.40
2018-09-14T10:16:38.089Z,24.70
2018-09-14T10:19:04.487Z,24.70
2018-09-14T10:21:33.972Z,24.40
2018-09-14T10:24:00.215Z,24.40
2018-09-14T10:26:26.494Z,24.80
2018-09-14T10:28:52.863Z,25.00
2018-09-14T10:31:19.138Z,25.00
2018-09-14T10:33:46.200Z,25.30
2018-09-14T10:36:13.252Z,25.40
2018-09-14T10:38:40.542Z,25.50
2018-09-14T10:41:07.509Z,25.50
2018-09-14T10:43:33.825Z,25.50
2018-09-14T10:46:00.140Z,25.50
2018-09-14T10:48:27.261Z,25.20
2018-09-14T10:50:53.873Z,25.00
2018-09-14T10:53:20.199Z,24.60
2018-09-14T10:55:47.482Z,24.90
2018-09-14T10:58:13.920Z,25.00
2018-09-14T11:00:41.635Z,25.10
2018-09-14T11:03:08.406Z,25.00
2018-09-14T11:05:34.698Z,25.20
2018-09-14T11:08:00.960Z,25.30
2018-09-14T11:10:27.298Z,25.40
2018-09-14T11:12:54.062Z,25.20
2018-09-14T11:15:20.367Z,24.80
2018-09-14T11:17:46.757Z,24.70
2018-09-14T11:20:13.075Z,24.50
2018-09-14T11:22:39.939Z,24.10
2018-09-14T11:25:07.044Z,23.40
2018-09-14T11:27:34.005Z,23.40
2018-09-14T11:30:00.340Z,23.20
2018-09-14T11:32:27.414Z,23.40
2018-09-14T11:34:53.662Z,23.40
2018-09-14T11:37:20.045Z,23.30
2018-09-14T11:39:47.108Z,23.10
2018-09-14T11:42:13.419Z,23.20
2018-09-14T11:44:40.312Z,22.80
2018-09-14T11:47:06.610Z,22.80
2018-09-14T11:49:33.635Z,23.10
2018-09-14T11:51:59.980Z,23.20
2018-09-14T11:54:26.403Z,23.40
2018-09-14T11:56:52.582Z,23.50
2018-09-14T11:59:18.941Z,23.40
2018-09-14T12:01:45.249Z,23.40
2018-09-14T12:04:11.551Z,23.40
2018-09-14T12:06:38.534Z,23.30
2018-09-14T12:09:04.841Z,23.30
2018-09-14T12:11:31.148Z,23.50
2018-09-14T12:13:57.501Z,23.50
2018-09-14T12:16:24.525Z,23.90
2018-09-14T12:18:51.564Z,24.00
2018-09-14T12:21:18.574Z,24.50
2018-09-14T12:23:45.403Z,24.50
2018-09-14T12:26:11.668Z,24.80
2018-09-14T12:28:37.946Z,25.00
2018-09-14T12:31:04.227Z,25.00
2018-09-14T12:33:30.546Z,24.90
2018-09-14T12:35:56.812Z,24.80
2018-09-14T12:38:23.865Z,24.50
2018-09-14T12:40:50.147Z,24.50
2018-09-14T12:43:16.431Z,24.30
2018-09-14T12:45:43.441Z,23.90
2018-09-14T12:48:09.743Z,23.90
2018-09-14T12:50:35.998Z,23.70
2018-09-14T12:53:02.293Z,23.50
2018-09-14T12:55:28.617Z,23.10
2018-09-14T12:57:54.918Z,23.20
2018-09-14T13:00:21.926Z,23.20
2018-09-14T13:02:48.220Z,23.20
2018-09-14T13:05:14.550Z,23.20
2018-09-14T13:07:40.813Z,23.10
2018-09-14T13:10:07.115Z,23.10
2018-09-14T13:12:33.373Z,23.10
2018-09-14T13:14:59.702Z,23.00
2018-09-14T13:17:25.956Z,22.80
2018-09-14T13:19:52.246Z,22.90
2018-09-14T13:22:18.501Z,23.00
2018-09-14T13:24:44.797Z,23.10
2018-09-14T13:27:11.808Z,23.00
2018-09-14T13:29:38.061Z,23.00
2018-09-14T13:32:05.130Z,22.90
2018-09-14T13:34:31.370Z,22.90
2018-09-14T13:36:57.676Z,23.00
2018-09-14T13:39:24.721Z,23.30
2018-09-14T13:41:51.743Z,23.50
2018-09-14T13:44:18.074Z,23.50
2018-09-14T13:46:44.396Z,23.70
2018-09-14T13:49:11.607Z,23.80
2018-09-14T13:51:37.920Z,24.00
2018-09-14T13:54:04.967Z,24.30
2018-09-14T13:56:31.291Z,24.30
2018-09-14T13:58:57.597Z,24.50
2018-09-14T14:01:23.936Z,24.40
2018-09-14T14:03:50.156Z,24.40
2018-09-14T14:06:16.531Z,24.40
2018-09-14T14:08:42.851Z,24.40
2018-09-14T14:11:10.021Z,24.20
2018-09-14T14:13:36.389Z,24.20
2018-09-14T14:16:03.548Z,23.70
2018-09-14T14:18:29.946Z,23.50
2018-09-14T14:20:59.325Z,23.60
2018-09-14T14:23:26.856Z,23.70
2018-09-14T14:25:59.244Z,23.90
2018-09-14T14:28:27.031Z,23.90
2018-09-14T14:30:55.003Z,24.00
2018-09-14T14:33:21.427Z,24.00
2018-09-14T14:35:49.169Z,24.10
2018-09-14T14:38:15.638Z,24.10
2018-09-14T14:40:42.500Z,24.20
2018-09-14T14:43:08.977Z,24.40
2018-09-14T14:45:35.281Z,24.60
2018-09-14T14:48:02.654Z,24.40
2018-09-14T14:50:31.007Z,24.10
2018-09-14T14:52:59.203Z,24.30
2018-09-14T14:55:25.564Z,24.10
2018-09-14T14:57:54.997Z,24.20
2018-09-14T15:00:26.604Z,24.30
2018-09-14T15:02:53.280Z,24.30
2018-09-14T15:05:19.741Z,24.30
2018-09-14T15:07:51.250Z,24.40
2018-09-14T15:10:17.574Z,24.30
2018-09-14T15:12:44.402Z,24.30
2018-09-14T15:15:11.341Z,24.30
2018-09-14T15:17:39.554Z,24.40
2018-09-14T15:20:06.587Z,24.30
2018-09-14T15:22:32.886Z,24.10
2018-09-14T15:24:59.148Z,23.80
2018-09-14T15:27:25.378Z,23.70
2018-09-14T15:29:51.636Z,23.70
2018-09-14T15:32:18.613Z,23.60
2018-09-14T15:34:45.936Z,23.60
2018-09-14T15:37:12.242Z,23.50
2018-09-14T15:39:38.497Z,23.50
2018-09-14T15:42:05.518Z,23.60
2018-09-14T15:44:32.281Z,23.60
2018-09-14T15:46:58.630Z,23.60
2018-09-14T15:49:25.700Z,23.80
2018-09-14T15:51:51.957Z,23.70
2018-09-14T15:54:19.479Z,23.70
2018-09-14T15:56:46.081Z,23.60
2018-09-14T15:59:12.394Z,23.50
2018-09-14T16:01:50.938Z,23.40
2018-09-14T16:04:17.961Z,23.30
2018-09-14T16:06:44.750Z,23.20
2018-09-14T16:09:11.073Z,23.20
2018-09-14T16:11:38.297Z,23.30
2018-09-14T16:14:04.612Z,23.20
2018-09-14T16:16:31.066Z,23.20
2018-09-14T16:18:57.308Z,23.30
2018-09-14T16:21:23.560Z,23.30
2018-09-14T16:23:50.598Z,23.30
2018-09-14T16:26:17.674Z,23.20
2018-09-14T16:28:44.737Z,23.20
2018-09-14T16:31:11.047Z,23.20
2018-09-14T16:33:37.588Z,23.20
2018-09-14T16:36:03.902Z,23.20
2018-09-14T16:38:30.951Z,23.20
2018-09-14T16:40:57.992Z,23.10
2018-09-14T16:43:25.306Z,23.10
2018-09-14T16:45:51.629Z,23.10
2018-09-14T16:48:17.902Z,23.00
2018-09-14T16:50:45.221Z,22.90
2018-09-14T16:53:12.292Z,22.80
2018-09-14T16:55:40.015Z,22.80
2018-09-14T16:58:07.696Z,22.80
2018-09-14T17:00:34.941Z,22.80
2018-09-14T17:03:01.799Z,22.80
2018-09-14T17:05:28.223Z,22.70
2018-09-14T17:07:54.484Z,22.70
2018-09-14T17:10:21.092Z,22.60
2018-09-14T17:12:47.420Z,22.60
2018-09-14T17:15:15.496Z,22.60
2018-09-14T17:17:45.587Z,22.50
2018-09-14T17:20:12.813Z,22.50
2018-09-14T17:22:40.639Z,22.40
2018-09-14T17:25:08.331Z,22.40
2018-09-14T17:27:35.804Z,22.40
2018-09-14T17:30:02.114Z,22.30
2018-09-14T17:32:29.174Z,22.30
2018-09-14T17:34:56.344Z,22.40
2018-09-14T17:37:23.972Z,22.30
2018-09-14T17:39:51.630Z,22.30
2018-09-14T17:42:19.674Z,22.20
2018-09-14T17:44:46.428Z,22.20
2018-09-14T17:47:13.551Z,22.10
2018-09-14T17:49:41.080Z,22.10
2018-09-14T17:52:09.357Z,22.00
2018-09-14T17:54:37.395Z,22.00
2018-09-14T17:57:03.703Z,21.90
2018-09-14T17:59:30.797Z,21.90
2018-09-14T18:01:58.210Z,21.70
2018-09-14T18:04:25.300Z,21.70
2018-09-14T18:06:51.591Z,21.70
2018-09-14T18:09:18.404Z,21.60
2018-09-14T18:11:44.722Z,21.60
2018-09-14T18:14:11.509Z,21.60
2018-09-14T18:16:37.827Z,21.60
2018-09-14T18:19:04.215Z,21.60
2018-09-14T18:21:32.630Z,21.60
2018-09-14T18:23:59.718Z,21.60
2018-09-14T18:26:26.110Z,21.60
2018-09-14T18:28:53.443Z,21.60
2018-09-14T18:31:20.630Z,21.60
2018-09-14T18:33:46.929Z,21.60
2018-09-14T18:36:13.301Z,21.60
2018-09-14T18:38:39.851Z,21.60
2018-09-14T18:41:06.102Z,21.60
2018-09-14T18:43:33.809Z,21.60
2018-09-14T18:46:00.343Z,21.60
2018-09-14T18:48:26.888Z,21.60
2018-09-14T18:50:53.194Z,21.50
2018-09-14T18:53:19.473Z,21.50
2018-09-14T18:55:46.338Z,21.50
2018-09-14T18:58:12.629Z,21.50
2018-09-14T19:00:38.903Z,21.40
2018-09-14T19:03:05.258Z,21.40
2018-09-14T19:05:31.552Z,21.30
2018-09-14T19:07:57.849Z,21.30
2018-09-14T19:10:25.236Z,21.20
2018-09-14T19:12:52.336Z,21.20
2018-09-14T19:15:19.872Z,21.20
2018-09-14T19:17:46.339Z,21.20
2018-09-14T19:20:14.927Z,21.10
2018-09-14T19:22:41.848Z,21.10
2018-09-14T19:25:08.927Z,21.10
2018-09-14T19:27:35.643Z,21.10
2018-09-14T19:30:02.212Z,21.00
2018-09-14T19:32:29.496Z,21.00
2018-09-14T19:34:56.688Z,21.00
2018-09-14T19:37:25.228Z,21.00
2018-09-14T19:39:52.870Z,21.00
2018-09-14T19:42:19.867Z,21.00
2018-09-14T19:44:49.031Z,21.00
2018-09-14T19:47:15.550Z,21.00
2018-09-14T19:49:42.349Z,20.90
2018-09-14T19:52:08.649Z,20.90
2018-09-14T19:54:35.632Z,20.70
2018-09-14T19:57:04.404Z,20.60
2018-09-14T19:59:41.080Z,20.50
2018-09-14T20:02:07.402Z,20.40
2018-09-14T20:04:33.682Z,20.30
2018-09-14T20:07:00.717Z,20.30
2018-09-14T20:09:27.045Z,20.30
2018-09-14T20:11:53.325Z,20.30
2018-09-14T20:14:19.595Z,20.20
2018-09-14T20:16:46.056Z,20.20
2018-09-14T20:19:13.076Z,20.20
2018-09-14T20:21:41.017Z,20.20
2018-09-14T20:24:07.661Z,20.20
2018-09-14T20:26:34.529Z,20.20
2018-09-14T20:29:02.080Z,20.10
2018-09-14T20:31:28.680Z,20.00
2018-09-14T20:33:57.386Z,20.00
2018-09-14T20:36:25.652Z,19.90
2018-09-14T20:38:52.233Z,19.90
2018-09-14T20:41:19.004Z,19.80
2018-09-14T20:43:47.180Z,19.70
2018-09-14T20:46:13.977Z,19.70
2018-09-14T20:48:42.082Z,19.60
2018-09-14T20:51:10.179Z,19.60
2018-09-14T20:53:37.925Z,19.60
2018-09-14T20:56:05.221Z,19.50
2018-09-14T20:58:34.023Z,19.50
2018-09-14T21:01:01.028Z,19.40
2018-09-14T21:03:31.145Z,19.30
2018-09-14T21:05:57.972Z,19.30
2018-09-14T21:08:27.080Z,19.40
2018-09-14T21:10:54.025Z,19.40
2018-09-14T21:13:25.304Z,19.40
2018-09-14T21:15:52.818Z,19.40
2018-09-14T21:18:20.770Z,19.30
2018-09-14T21:20:48.463Z,19.30
2018-09-14T21:23:15.700Z,19.30
2018-09-14T21:25:43.281Z,19.30
2018-09-14T21:28:10.796Z,19.20
2018-09-14T21:30:38.454Z,19.00
2018-09-14T21:33:05.194Z,19.10
2018-09-14T21:35:32.579Z,19.00
2018-09-14T21:38:00.242Z,19.00
2018-09-14T21:40:27.440Z,19.00
2018-09-14T21:42:55.134Z,18.90
2018-09-14T21:45:23.044Z,18.90
2018-09-14T21:47:50.802Z,18.80
2018-09-14T21:50:17.436Z,18.80
2018-09-14T21:52:44.486Z,18.80
2018-09-14T21:55:11.822Z,18.90
2018-09-14T21:57:39.347Z,19.00
2018-09-14T22:00:06.281Z,19.00
2018-09-14T22:02:33.358Z,19.10
2018-09-14T22:05:00.182Z,19.10
2018-09-14T22:07:26.946Z,19.20
2018-09-14T22:09:55.163Z,19.20
2018-09-14T22:12:22.384Z,19.20
2018-09-14T22:14:49.148Z,19.20
2018-09-14T22:17:16.112Z,19.10
2018-09-14T22:19:43.210Z,19.10
2018-09-14T22:22:11.406Z,19.20
2018-09-14T22:24:38.783Z,19.20
2018-09-14T22:27:05.717Z,19.20
2018-09-14T22:29:32.666Z,19.20
2018-09-14T22:31:59.855Z,19.20
2018-09-14T22:34:27.023Z,19.10
2018-09-14T22:36:54.230Z,19.20
2018-09-14T22:39:20.992Z,19.20
2018-09-14T22:41:48.292Z,19.20
2018-09-14T22:44:15.269Z,19.20
2018-09-14T22:46:42.607Z,19.20
2018-09-14T22:49:09.962Z,19.20
2018-09-14T22:51:37.188Z,19.10
2018-09-14T22:54:04.738Z,19.10
2018-09-14T22:56:32.338Z,19.00
2018-09-14T22:59:00.074Z,19.00
2018-09-14T23:01:27.383Z,19.00
2018-09-14T23:03:54.795Z,19.00
2018-09-14T23:06:22.544Z,19.00
2018-09-14T23:08:49.796Z,18.90
2018-09-14T23:11:18.039Z,18.90
2018-09-14T23:13:45.645Z,18.90
2018-09-14T23:16:12.384Z,18.80
2018-09-14T23:18:39.355Z,18.80
2018-09-14T23:21:07.453Z,18.70
2018-09-14T23:23:35.032Z,18.60
2018-09-14T23:26:01.980Z,18.60
2018-09-14T23:28:29.412Z,18.60
2018-09-14T23:30:56.763Z,18.50
2018-09-14T23:33:24.327Z,18.40
2018-09-14T23:35:51.987Z,18.40
2018-09-14T23:38:19.338Z,18.30
2018-09-14T23:40:46.312Z,18.30
2018-09-14T23:43:13.591Z,18.30
2018-09-14T23:45:40.492Z,18.10
2018-09-14T23:48:07.437Z,18.10
2018-09-14T23:50:34.296Z,18.20
2018-09-14T23:53:01.335Z,18.30
2018-09-14T23:55:28.553Z,18.20
2018-09-14T23:57:56.861Z,18.30
